createdAt,value
2019-05-09T00:01:37.849Z,99415.71
2019-05-09T00:04:43.903Z,99417.58
2019-05-09T00:07:47.467Z,99409.95
2019-05-09T00:10:53.291Z,99406.03
2019-05-09T00:13:56.892Z,99406.52
2019-05-09T00:17:00.704Z,99406.97
2019-05-09T00:20:13.728Z,99404.48
2019-05-09T00:23:17.552Z,99404.58
2019-05-09T00:26:23.498Z,99404.97
2019-05-09T00:29:33.563Z,99408.40
2019-05-09T00:32:39.377Z,99406.30
2019-05-09T00:35:44.230Z,99408.86
2019-05-09T00:38:48.212Z,99412.16
2019-05-09T00:41:53.891Z,99407.63
2019-05-09T00:44:59.489Z,99410.95
2019-05-09T00:48:03.799Z,99411.61
2019-05-09T00:51:07.644Z,99414.32
2019-05-09T00:54:13.500Z,99409.40
2019-05-09T00:57:35.524Z,99407.23
2019-05-09T01:00:39.462Z,99407.53
2019-05-09T01:03:43.428Z,99410.41
2019-05-09T01:06:47.292Z,99405.80
2019-05-09T01:09:51.229Z,99402.94
2019-05-09T01:12:55.073Z,99412.84
2019-05-09T01:15:58.901Z,99408.56
2019-05-09T01:19:03.759Z,99407.63
2019-05-09T01:22:07.709Z,99409.80
2019-05-09T01:25:13.453Z,99409.08
2019-05-09T01:28:17.229Z,99413.48
2019-05-09T01:31:21.139Z,99403.94
2019-05-09T01:34:28.474Z,99405.03
2019-05-09T01:37:34.198Z,99406.98
2019-05-09T01:40:38.014Z,99405.03
2019-05-09T01:43:44.158Z,99410.83
2019-05-09T01:46:47.458Z,99404.70
2019-05-09T01:49:51.297Z,99406.75
2019-05-09T01:52:55.159Z,99413.16
2019-05-09T01:55:59.136Z,99409.56
2019-05-09T01:59:03.201Z,99408.45
2019-05-09T02:02:08.713Z,99404.31
2019-05-09T02:05:13.572Z,99399.11
2019-05-09T02:08:17.500Z,99407.36
2019-05-09T02:11:23.636Z,99397.45
2019-05-09T02:14:48.775Z,99396.23
2019-05-09T02:18:05.278Z,99401.66
2019-05-09T02:21:11.366Z,99403.25
2019-05-09T02:24:14.326Z,99405.09
2019-05-09T02:27:18.255Z,99406.30
2019-05-09T02:30:25.403Z,99404.58
2019-05-09T02:33:28.009Z,99401.05
2019-05-09T02:36:31.879Z,99403.77
2019-05-09T02:39:35.735Z,99409.39
2019-05-09T02:42:40.125Z,99412.67
2019-05-09T02:45:54.682Z,99408.30
2019-05-09T02:48:59.651Z,99407.63
2019-05-09T02:52:04.020Z,99404.33
2019-05-09T02:55:09.760Z,99403.26
2019-05-09T02:58:20.404Z,99405.09
2019-05-09T03:01:29.858Z,99405.20
2019-05-09T03:04:33.819Z,99401.83
2019-05-09T03:07:58.417Z,99402.31
2019-05-09T03:11:01.772Z,99408.02
2019-05-09T03:14:08.787Z,99403.94
2019-05-09T03:17:11.429Z,99404.58
2019-05-09T03:20:35.259Z,99405.91
2019-05-09T03:23:39.221Z,99409.80
2019-05-09T03:26:45.433Z,99407.23
2019-05-09T03:29:53.075Z,99412.99
2019-05-09T03:32:59.607Z,99424.10
2019-05-09T03:36:02.592Z,99417.59
2019-05-09T03:39:08.270Z,99415.59
2019-05-09T03:42:12.236Z,99415.03
2019-05-09T03:45:18.309Z,99412.67
2019-05-09T03:48:28.436Z,99422.61
2019-05-09T03:51:32.364Z,99420.40
2019-05-09T03:54:38.758Z,99426.69
2019-05-09T03:57:47.702Z,99426.45
2019-05-09T04:00:51.581Z,99423.73
2019-05-09T04:03:55.532Z,99424.73
2019-05-09T04:06:59.404Z,99431.75
2019-05-09T04:10:03.340Z,99431.30
2019-05-09T04:13:08.227Z,99431.78
2019-05-09T04:16:12.845Z,99430.56
2019-05-09T04:19:17.485Z,99428.56
2019-05-09T04:22:21.439Z,99432.94
2019-05-09T04:25:29.549Z,99434.14
2019-05-09T04:28:33.591Z,99435.66
2019-05-09T04:31:38.341Z,99433.48
2019-05-09T04:34:42.442Z,99435.10
2019-05-09T04:37:48.231Z,99432.39
2019-05-09T04:40:51.869Z,99429.86
2019-05-09T04:43:57.468Z,99430.11
2019-05-09T04:47:03.531Z,99427.73
2019-05-09T04:50:07.690Z,99429.81
2019-05-09T04:53:11.780Z,99439.90
2019-05-09T04:56:20.654Z,99440.53
2019-05-09T04:59:24.519Z,99440.81
2019-05-09T05:02:41.792Z,99445.63
2019-05-09T05:05:48.144Z,99449.09
2019-05-09T05:08:51.443Z,99457.65
2019-05-09T05:11:57.688Z,99453.95
2019-05-09T05:15:00.946Z,99457.77
2019-05-09T05:18:04.812Z,99458.55
2019-05-09T05:21:08.624Z,99464.88
2019-05-09T05:24:31.494Z,99475.34
2019-05-09T05:27:35.369Z,99473.64
2019-05-09T05:30:39.271Z,99477.17
2019-05-09T05:33:53.334Z,99483.59
2019-05-09T05:36:54.578Z,99486.15
2019-05-09T05:39:58.506Z,99482.27
2019-05-09T05:43:02.419Z,99485.98
2019-05-09T05:46:14.674Z,99480.47
2019-05-09T05:49:18.733Z,99484.55
2019-05-09T05:52:22.629Z,99486.71
2019-05-09T05:55:27.438Z,99479.80
2019-05-09T05:58:41.468Z,99479.01
2019-05-09T06:01:47.718Z,99479.89
2019-05-09T06:04:51.189Z,99488.03
2019-05-09T06:07:57.447Z,99479.30
2019-05-09T06:11:00.689Z,99482.03
2019-05-09T06:14:09.367Z,99479.14
2019-05-09T06:17:11.040Z,99484.63
2019-05-09T06:20:17.746Z,99487.28
2019-05-09T06:23:22.638Z,99485.17
2019-05-09T06:26:29.435Z,99491.26
2019-05-09T06:29:33.597Z,99486.56
2019-05-09T06:32:38.514Z,99492.09
2019-05-09T06:35:44.668Z,99498.50
2019-05-09T06:38:49.159Z,99497.80
2019-05-09T06:41:53.387Z,99499.77
2019-05-09T06:45:08.226Z,99509.45
2019-05-09T06:48:13.167Z,99499.66
2019-05-09T06:51:21.106Z,99507.26
2019-05-09T06:54:23.550Z,99509.35
2019-05-09T06:57:38.978Z,99513.36
2019-05-09T07:00:52.126Z,99511.05
2019-05-09T07:04:00.564Z,99514.24
2019-05-09T07:07:12.204Z,99522.45
2019-05-09T07:10:17.813Z,99524.18
2019-05-09T07:13:21.731Z,99530.06
2019-05-09T07:16:27.547Z,99537.59
2019-05-09T07:19:31.172Z,99533.70
2019-05-09T07:22:50.391Z,99532.19
2019-05-09T07:26:11.469Z,99528.44
2019-05-09T07:29:17.315Z,99531.48
2019-05-09T07:32:22.015Z,99533.72
2019-05-09T07:35:27.818Z,99541.86
2019-05-09T07:38:32.406Z,99543.03
2019-05-09T07:41:38.251Z,99546.60
2019-05-09T07:44:48.806Z,99546.73
2019-05-09T07:47:47.990Z,99540.27
2019-05-09T07:50:51.963Z,99539.62
2019-05-09T07:53:55.870Z,99550.46
2019-05-09T07:56:59.783Z,99542.61
2019-05-09T08:00:03.985Z,99544.18
2019-05-09T08:03:12.058Z,99547.70
2019-05-09T08:06:13.512Z,99560.18
2019-05-09T08:09:18.646Z,99547.92
2019-05-09T08:12:22.675Z,99557.06
2019-05-09T08:15:28.075Z,99559.61
2019-05-09T08:18:32.059Z,99561.39
2019-05-09T08:21:38.109Z,99561.19
2019-05-09T08:24:41.450Z,99568.62
2019-05-09T08:27:45.298Z,99571.89
2019-05-09T08:30:49.145Z,99576.98
2019-05-09T08:33:53.153Z,99576.56
2019-05-09T08:36:58.008Z,99575.34
2019-05-09T08:40:02.160Z,99584.16
2019-05-09T08:43:07.579Z,99583.30
2019-05-09T08:46:12.768Z,99579.23
2019-05-09T08:49:18.233Z,99583.96
2019-05-09T08:52:22.115Z,99585.04
2019-05-09T08:55:27.854Z,99578.26
2019-05-09T08:58:31.522Z,99587.72
2019-05-09T09:02:04.962Z,99595.64
2019-05-09T09:04:41.007Z,99590.06
2019-05-09T09:07:44.812Z,99592.97
2019-05-09T09:10:49.067Z,99598.48
2019-05-09T09:13:53.054Z,99599.81
2019-05-09T09:16:57.611Z,99586.89
2019-05-09T09:20:01.733Z,99594.82
2019-05-09T09:23:05.679Z,99593.52
2019-05-09T09:26:09.623Z,99595.59
2019-05-09T09:29:13.478Z,99603.80
2019-05-09T09:32:18.860Z,99603.23
2019-05-09T09:35:23.171Z,99597.36
2019-05-09T09:38:28.150Z,99599.44
2019-05-09T09:41:32.074Z,99610.19
2019-05-09T09:44:35.922Z,99607.31
2019-05-09T09:47:40.552Z,99622.91
2019-05-09T09:50:44.656Z,99618.25
2019-05-09T09:53:49.046Z,99617.59
2019-05-09T09:56:53.894Z,99620.04
2019-05-09T10:00:15.369Z,99614.64
2019-05-09T10:03:19.928Z,99621.58
2019-05-09T10:06:28.490Z,99618.40
2019-05-09T10:09:32.426Z,99622.45
2019-05-09T10:12:43.580Z,99627.21
2019-05-09T10:16:13.086Z,99629.13
2019-05-09T10:19:23.755Z,99631.56
2019-05-09T10:22:27.653Z,99622.49
2019-05-09T10:25:31.519Z,99633.63
2019-05-09T10:28:37.848Z,99632.31
2019-05-09T10:31:40.998Z,99633.11
2019-05-09T10:34:44.981Z,99635.03
2019-05-09T10:37:48.814Z,99639.22
2019-05-09T10:40:53.444Z,99637.70
2019-05-09T10:44:08.299Z,99640.75
2019-05-09T10:47:32.101Z,99635.91
2019-05-09T10:50:43.143Z,99636.16
2019-05-09T10:53:41.479Z,99633.03
2019-05-09T10:56:45.445Z,99638.59
2019-05-09T10:59:49.294Z,99634.07
2019-05-09T11:02:53.124Z,99628.13
2019-05-09T11:05:57.945Z,99637.05
2019-05-09T11:09:01.927Z,99639.00
2019-05-09T11:12:07.926Z,99642.00
2019-05-09T11:15:11.582Z,99651.27
2019-05-09T11:18:18.627Z,99647.19
2019-05-09T11:21:25.028Z,99645.47
2019-05-09T11:24:41.803Z,99653.89
2019-05-09T11:27:34.844Z,99648.00
2019-05-09T11:30:38.805Z,99648.41
2019-05-09T11:33:42.555Z,99659.28
2019-05-09T11:36:46.429Z,99661.62
2019-05-09T11:39:50.224Z,99661.55
2019-05-09T11:42:54.122Z,99659.52
2019-05-09T11:45:58.653Z,99657.97
2019-05-09T11:49:02.914Z,99663.85
2019-05-09T11:52:08.396Z,99663.72
2019-05-09T11:55:28.694Z,99663.85
2019-05-09T11:58:18.309Z,99659.46
2019-05-09T12:01:22.141Z,99664.61
2019-05-09T12:04:28.077Z,99670.27
2019-05-09T12:07:31.565Z,99663.48
2019-05-09T12:10:38.087Z,99665.66
2019-05-09T12:13:40.999Z,99667.00
2019-05-09T12:16:44.853Z,99671.01
2019-05-09T12:19:49.032Z,99666.74
2019-05-09T12:22:52.882Z,99668.30
2019-05-09T12:25:58.243Z,99664.83
2019-05-09T12:29:02.169Z,99667.11
2019-05-09T12:32:08.578Z,99672.13
2019-05-09T12:35:11.910Z,99674.75
2019-05-09T12:38:17.917Z,99675.73
2019-05-09T12:41:21.356Z,99674.80
2019-05-09T12:44:25.357Z,99666.61
2019-05-09T12:47:29.384Z,99665.98
2019-05-09T12:50:33.145Z,99665.44
2019-05-09T12:53:39.383Z,99667.31
2019-05-09T12:56:42.629Z,99680.20
2019-05-09T12:59:52.410Z,99673.06
2019-05-09T13:02:52.016Z,99671.11
2019-05-09T13:05:57.473Z,99672.66
2019-05-09T13:09:01.462Z,99685.10
2019-05-09T13:12:05.534Z,99676.84
2019-05-09T13:15:09.434Z,99672.02
2019-05-09T13:18:24.633Z,99676.23
2019-05-09T13:21:20.436Z,99679.19
2019-05-09T13:24:24.335Z,99678.61
2019-05-09T13:27:28.670Z,99675.34
2019-05-09T13:30:32.549Z,99674.42
2019-05-09T13:33:38.482Z,99681.41
2019-05-09T13:36:42.119Z,99687.59
2019-05-09T13:39:47.581Z,99676.27
2019-05-09T13:42:51.546Z,99687.71
2019-05-09T13:45:55.376Z,99683.73
2019-05-09T13:49:11.029Z,99684.98
2019-05-09T13:52:05.317Z,99692.11
2019-05-09T13:55:09.405Z,99691.44
2019-05-09T13:58:13.708Z,99689.34
2019-05-09T14:01:17.867Z,99691.72
2019-05-09T14:04:21.906Z,99693.72
2019-05-09T14:07:27.924Z,99692.66
2019-05-09T14:10:31.282Z,99693.12
2019-05-09T14:13:35.245Z,99694.28
2019-05-09T14:16:39.271Z,99703.67
2019-05-09T14:19:46.820Z,99702.19
2019-05-09T14:22:49.167Z,99702.20
2019-05-09T14:25:53.035Z,99701.84
2019-05-09T14:28:58.294Z,99703.41
2019-05-09T14:32:04.814Z,99705.10
2019-05-09T14:35:08.672Z,99701.77
2019-05-09T14:38:12.493Z,99709.34
2019-05-09T14:41:16.462Z,99712.97
2019-05-09T14:44:20.278Z,99709.23
2019-05-09T14:47:24.235Z,99716.14
2019-05-09T14:50:28.555Z,99712.69
2019-05-09T14:53:33.184Z,99708.64
2019-05-09T14:56:41.698Z,99723.08
2019-05-09T14:59:42.603Z,99707.39
2019-05-09T15:02:48.700Z,99705.58
2019-05-09T15:05:52.026Z,99706.09
2019-05-09T15:08:57.910Z,99713.37
2019-05-09T15:12:01.386Z,99716.55
2019-05-09T15:15:07.547Z,99716.97
2019-05-09T15:18:12.381Z,99720.41
2019-05-09T15:21:18.928Z,99721.24
2019-05-09T15:24:21.821Z,99723.33
2019-05-09T15:27:27.664Z,99719.95
2019-05-09T15:30:31.171Z,99727.41
2019-05-09T15:33:37.455Z,99726.77
2019-05-09T15:36:40.562Z,99733.42
2019-05-09T15:39:44.377Z,99737.05
2019-05-09T15:42:48.320Z,99735.89
2019-05-09T15:46:20.447Z,99735.89
2019-05-09T15:49:24.271Z,99741.87
2019-05-09T15:52:28.668Z,99735.58
2019-05-09T15:55:32.497Z,99738.65
2019-05-09T15:58:38.523Z,99743.38
2019-05-09T16:01:41.963Z,99741.37
2019-05-09T16:04:47.542Z,99741.06
2019-05-09T16:07:51.483Z,99742.61
2019-05-09T16:10:57.927Z,99732.59
2019-05-09T16:14:03.114Z,99733.30
2019-05-09T16:17:07.840Z,99730.92
2019-05-09T16:20:12.329Z,99736.38
2019-05-09T16:23:18.418Z,99733.38
2019-05-09T16:26:21.694Z,99740.59
2019-05-09T16:29:27.983Z,99736.95
2019-05-09T16:32:31.313Z,99735.98
2019-05-09T16:35:35.129Z,99744.70
2019-05-09T16:38:45.395Z,99739.44
2019-05-09T16:41:44.883Z,99749.45
2019-05-09T16:44:48.755Z,99752.37
2019-05-09T16:47:52.576Z,99760.10
2019-05-09T16:51:03.377Z,99755.20
2019-05-09T16:54:02.012Z,99760.32
2019-05-09T16:57:08.317Z,99755.06
2019-05-09T17:00:14.541Z,99757.80
2019-05-09T17:03:18.521Z,99760.42
2019-05-09T17:06:22.408Z,99764.40
2019-05-09T17:09:28.465Z,99759.97
2019-05-09T17:12:32.100Z,99757.12
2019-05-09T17:15:38.750Z,99767.50
2019-05-09T17:18:41.757Z,99769.42
2019-05-09T17:22:02.846Z,99777.37
2019-05-09T17:25:07.976Z,99775.66
2019-05-09T17:28:11.966Z,99779.97
2019-05-09T17:31:18.098Z,99777.12
2019-05-09T17:34:21.777Z,99778.18
2019-05-09T17:37:25.676Z,99782.33
2019-05-09T17:40:31.421Z,99779.23
2019-05-09T17:43:35.245Z,99779.34
2019-05-09T17:46:40.178Z,99779.55
2019-05-09T17:49:43.989Z,99783.19
2019-05-09T17:52:48.183Z,99787.23
2019-05-09T17:55:52.225Z,99781.34
2019-05-09T17:58:57.867Z,99781.91
2019-05-09T18:02:01.718Z,99789.44
2019-05-09T18:05:11.789Z,99792.58
2019-05-09T18:08:40.575Z,99794.39
2019-05-09T18:11:44.526Z,99800.98
2019-05-09T18:14:48.514Z,99812.80
2019-05-09T18:17:52.417Z,99822.73
2019-05-09T18:20:57.999Z,99821.01
2019-05-09T18:24:02.067Z,99821.55
2019-05-09T18:27:07.671Z,99821.30
2019-05-09T18:30:12.826Z,99824.44
2019-05-09T18:33:31.475Z,99836.21
2019-05-09T18:36:38.025Z,99834.61
2019-05-09T18:39:40.888Z,99837.80
2019-05-09T18:42:44.855Z,99838.92
2019-05-09T18:45:48.699Z,99841.78
2019-05-09T18:48:52.497Z,99839.48
2019-05-09T18:52:03.986Z,99843.95
2019-05-09T18:55:01.902Z,99838.02
2019-05-09T18:58:05.917Z,99841.70
2019-05-09T19:01:09.784Z,99846.61
2019-05-09T19:04:13.687Z,99841.06
2019-05-09T19:07:22.546Z,99840.15
2019-05-09T19:10:23.157Z,99843.65
2019-05-09T19:13:27.054Z,99845.66
2019-05-09T19:16:39.205Z,99848.17
2019-05-09T19:19:49.562Z,99853.11
2019-05-09T19:22:53.529Z,99850.30
2019-05-09T19:25:59.079Z,99856.20
2019-05-09T19:29:02.967Z,99862.41
2019-05-09T19:32:06.843Z,99864.98
2019-05-09T19:35:10.891Z,99873.08
2019-05-09T19:38:14.731Z,99861.87
2019-05-09T19:41:18.689Z,99864.09
2019-05-09T19:44:22.528Z,99861.89
2019-05-09T19:47:26.425Z,99864.95
2019-05-09T19:50:30.353Z,99871.98
2019-05-09T19:53:34.171Z,99865.72
2019-05-09T19:56:38.027Z,99864.46
2019-05-09T19:59:42.011Z,99866.70
2019-05-09T20:02:45.888Z,99869.45
2019-05-09T20:05:49.718Z,99873.63
2019-05-09T20:08:53.685Z,99896.47
2019-05-09T20:12:10.465Z,99900.28
2019-05-09T20:15:17.086Z,99896.02
2019-05-09T20:18:20.890Z,99903.10
2019-05-09T20:21:24.872Z,99891.32
2019-05-09T20:24:28.771Z,99892.55
2019-05-09T20:27:32.665Z,99894.92
2019-05-09T20:30:36.488Z,99907.17
2019-05-09T20:33:40.317Z,99919.72
2019-05-09T20:36:44.287Z,99923.81
2019-05-09T20:39:48.297Z,99919.87
2019-05-09T20:42:52.383Z,99921.66
2019-05-09T20:45:56.438Z,99918.73
2019-05-09T20:49:00.439Z,99910.97
2019-05-09T20:52:04.499Z,99911.98
2019-05-09T20:55:08.654Z,99907.36
2019-05-09T20:58:12.700Z,99904.14
2019-05-09T21:01:16.850Z,99905.08
2019-05-09T21:04:20.864Z,99899.45
2019-05-09T21:07:24.844Z,99910.16
2019-05-09T21:10:28.859Z,99908.27
2019-05-09T21:13:47.396Z,99911.70
2019-05-09T21:16:38.589Z,99923.31
2019-05-09T21:19:42.608Z,99914.72
2019-05-09T21:22:46.598Z,99916.67
2019-05-09T21:25:50.671Z,99920.04
2019-05-09T21:28:54.597Z,99944.30
2019-05-09T21:31:58.685Z,99957.45
2019-05-09T21:35:02.859Z,99946.31
2019-05-09T21:38:06.741Z,99951.12
2019-05-09T21:41:10.633Z,99956.62
2019-05-09T21:44:14.426Z,99963.78
2019-05-09T21:47:18.240Z,99969.00
2019-05-09T21:50:22.040Z,99986.16
2019-05-09T21:53:39.791Z,99989.83
2019-05-09T21:56:31.424Z,99985.14
2019-05-09T21:59:35.257Z,99982.86
2019-05-09T22:02:39.215Z,99988.80
2019-05-09T22:05:43.119Z,99991.98
2019-05-09T22:08:47.006Z,99992.25
2019-05-09T22:11:50.871Z,99988.25
2019-05-09T22:14:54.715Z,99982.02
2019-05-09T22:17:58.668Z,99989.94
2019-05-09T22:21:02.514Z,99986.30
2019-05-09T22:24:06.463Z,99987.70
2019-05-09T22:27:10.277Z,99984.70
2019-05-09T22:30:15.600Z,99984.05
2019-05-09T22:33:19.400Z,99973.44
2019-05-09T22:36:23.293Z,99975.74
2019-05-09T22:39:27.146Z,99966.52
2019-05-09T22:42:31.104Z,99963.20
2019-05-09T22:45:35.039Z,99963.41
2019-05-09T22:48:38.847Z,99960.90
2019-05-09T22:51:42.678Z,99953.22
2019-05-09T22:54:46.482Z,99950.63
2019-05-09T22:57:50.431Z,99957.88
2019-05-09T23:00:54.408Z,99952.83
2019-05-09T23:03:58.271Z,99956.30
2019-05-09T23:07:02.156Z,99960.98
2019-05-09T23:10:06.370Z,99961.53
2019-05-09T23:13:10.264Z,99969.13
2019-05-09T23:16:14.136Z,99968.73
2019-05-09T23:19:17.964Z,99979.91
2019-05-09T23:22:24.337Z,99972.53
2019-05-09T23:25:28.142Z,99972.19
2019-05-09T23:28:32.028Z,99975.64
2019-05-09T23:31:50.288Z,99976.92
2019-05-09T23:34:54.185Z,99973.47
2019-05-09T23:37:58.428Z,99973.96
2019-05-09T23:41:02.271Z,99972.75
2019-05-09T23:44:06.152Z,99969.19
2019-05-09T23:47:10.154Z,99965.98
2019-05-09T23:50:14.115Z,99967.58
2019-05-09T23:53:31.583Z,99972.79
2019-05-09T23:56:53.087Z,99968.16
